createdAt,value
2022-11-15T00:01:31.545Z,16.20
2022-11-15T00:04:17.101Z,16.02
2022-11-15T00:07:10.516Z,15.32
2022-11-15T00:10:05.498Z,15.88
2022-11-15T00:12:50.552Z,15.95
2022-11-15T00:15:37.750Z,15.73
2022-11-15T00:18:23.249Z,16.10
2022-11-15T00:21:12.838Z,16.70
2022-11-15T00:23:59.265Z,16.58
2022-11-15T00:26:45.051Z,16.40
2022-11-15T00:29:30.279Z,17.48
2022-11-15T00:32:22.124Z,16.13
2022-11-15T00:35:07.908Z,15.52
2022-11-15T00:38:06.717Z,16.02
2022-11-15T00:41:10.686Z,16.02
2022-11-15T00:44:02.829Z,14.98
2022-11-15T00:46:48.431Z,16.67
2022-11-15T00:49:33.734Z,15.77
2022-11-15T00:52:19.200Z,16.17
2022-11-15T00:55:04.877Z,15.05
2022-11-15T00:57:50.440Z,15.82
2022-11-15T01:00:49.763Z,16.15
2022-11-15T01:03:51.760Z,16.75
2022-11-15T01:06:43.962Z,16.17
2022-11-15T01:09:29.616Z,17.17
2022-11-15T01:12:15.299Z,15.75
2022-11-15T01:15:00.699Z,16.50
2022-11-15T01:17:59.736Z,15.65
2022-11-15T01:20:52.156Z,14.95
2022-11-15T01:23:38.484Z,16.02
2022-11-15T01:26:25.553Z,15.90
2022-11-15T01:29:23.712Z,16.58
2022-11-15T01:32:28.696Z,16.65
2022-11-15T01:35:21.928Z,16.75
2022-11-15T01:38:07.414Z,16.58
2022-11-15T01:40:52.874Z,17.77
2022-11-15T01:43:38.473Z,17.13
2022-11-15T01:46:58.438Z,17.90
2022-11-15T01:50:00.503Z,17.08
2022-11-15T01:52:46.347Z,16.67
2022-11-15T01:55:31.897Z,16.88
2022-11-15T01:58:17.148Z,17.58
2022-11-15T02:01:02.961Z,16.73
2022-11-15T02:04:14.106Z,16.92
2022-11-15T02:07:00.948Z,17.60
2022-11-15T02:09:46.919Z,18.17
2022-11-15T02:12:32.703Z,17.52
2022-11-15T02:15:18.136Z,17.15
2022-11-15T02:18:15.974Z,17.50
2022-11-15T02:21:15.834Z,16.98
2022-11-15T02:24:26.225Z,17.65
2022-11-15T02:27:21.044Z,17.52
2022-11-15T02:30:18.812Z,17.25
2022-11-15T02:33:41.224Z,18.58
2022-11-15T02:36:50.449Z,16.48
2022-11-15T02:39:45.641Z,18.63
2022-11-15T02:42:55.547Z,18.05
2022-11-15T02:45:47.148Z,17.05
2022-11-15T02:48:33.852Z,18.67
2022-11-15T02:51:20.113Z,18.77
2022-11-15T02:54:05.449Z,17.65
2022-11-15T02:56:54.354Z,17.23
2022-11-15T02:59:59.348Z,18.13
2022-11-15T03:02:57.025Z,16.88
2022-11-15T03:06:01.882Z,18.42
2022-11-15T03:09:13.747Z,17.35
2022-11-15T03:12:12.984Z,17.70
2022-11-15T03:15:02.759Z,18.25
2022-11-15T03:20:46.950Z,15.98
2022-11-15T03:23:34.679Z,18.13
2022-11-15T03:26:23.047Z,17.25
2022-11-15T03:29:26.993Z,16.98
2022-11-15T03:32:26.383Z,17.00
2022-11-15T03:35:18.457Z,17.05
2022-11-15T03:38:20.883Z,18.17
2022-11-15T03:41:12.865Z,18.13
2022-11-15T03:44:15.086Z,17.65
2022-11-15T03:47:18.515Z,19.17
2022-11-15T03:50:09.813Z,18.10
2022-11-15T03:52:56.313Z,18.98
2022-11-15T03:55:41.967Z,17.83
2022-11-15T03:58:27.341Z,19.20
2022-11-15T04:01:12.763Z,19.17
2022-11-15T04:03:58.294Z,19.35
2022-11-15T04:06:43.690Z,19.23
2022-11-15T04:09:29.189Z,19.00
2022-11-15T04:12:31.688Z,19.50
2022-11-15T04:15:23.669Z,18.15
2022-11-15T04:18:08.804Z,19.90
2022-11-15T04:21:12.867Z,18.23
2022-11-15T04:24:13.281Z,19.13
2022-11-15T04:26:59.208Z,19.02
2022-11-15T04:29:44.909Z,18.75
2022-11-15T04:32:29.964Z,19.58
2022-11-15T04:35:15.398Z,19.13
2022-11-15T04:38:01.696Z,17.88
2022-11-15T04:40:47.741Z,18.67
2022-11-15T04:43:33.488Z,18.20
2022-11-15T04:46:18.964Z,19.05
2022-11-15T04:49:04.357Z,18.42
2022-11-15T04:51:50.953Z,18.40
2022-11-15T04:54:36.717Z,18.98
2022-11-15T04:57:22.536Z,18.40
2022-11-15T05:00:11.549Z,18.50
2022-11-15T05:03:17.161Z,17.77
2022-11-15T05:06:03.245Z,21.05
2022-11-15T05:08:48.909Z,17.45
2022-11-15T05:11:34.645Z,16.17
2022-11-15T05:14:19.796Z,16.08
2022-11-15T05:17:05.140Z,16.30
2022-11-15T05:19:52.959Z,14.80
2022-11-15T05:22:39.400Z,15.93
2022-11-15T05:25:25.169Z,16.33
2022-11-15T05:28:10.619Z,16.30
2022-11-15T05:31:11.947Z,17.83
2022-11-15T05:33:57.680Z,20.48
2022-11-15T05:36:46.170Z,18.83
2022-11-15T05:39:31.772Z,17.77
2022-11-15T05:42:17.656Z,17.33
2022-11-15T05:45:06.522Z,16.20
2022-11-15T05:47:53.812Z,16.25
2022-11-15T05:50:42.758Z,17.15
2022-11-15T05:53:28.178Z,17.20
2022-11-15T05:56:14.788Z,18.25
2022-11-15T05:59:00.861Z,16.17
2022-11-15T06:01:46.337Z,17.27
2022-11-15T06:04:31.796Z,22.80
2022-11-15T06:07:17.211Z,16.75
2022-11-15T06:10:02.782Z,16.35
2022-11-15T06:12:48.383Z,15.13
2022-11-15T06:15:35.469Z,16.50
2022-11-15T06:18:21.061Z,16.88
2022-11-15T06:21:06.878Z,17.55
2022-11-15T06:23:52.304Z,16.75
2022-11-15T06:26:37.820Z,18.05
2022-11-15T06:29:23.074Z,18.05
2022-11-15T06:32:08.508Z,18.58
2022-11-15T06:34:53.887Z,18.02
2022-11-15T06:37:39.426Z,16.90
2022-11-15T06:40:24.959Z,17.77
2022-11-15T06:43:10.356Z,18.02
2022-11-15T06:45:55.770Z,18.75
2022-11-15T06:48:41.074Z,17.13
2022-11-15T06:51:26.557Z,17.52
2022-11-15T06:54:11.826Z,17.90
2022-11-15T06:56:57.073Z,17.20
2022-11-15T06:59:42.578Z,16.67
2022-11-15T07:02:27.857Z,16.13
2022-11-15T07:05:14.745Z,12.73
2022-11-15T07:08:00.795Z,14.10
2022-11-15T07:10:46.345Z,13.85
2022-11-15T07:13:36.517Z,14.82
2022-11-15T07:16:22.152Z,14.68
2022-11-15T07:19:07.551Z,17.60
2022-11-15T07:21:52.998Z,14.35
2022-11-15T07:24:38.380Z,16.77
2022-11-15T07:27:23.864Z,15.75
2022-11-15T07:30:09.607Z,15.38
2022-11-15T07:32:59.573Z,16.40
2022-11-15T07:35:47.506Z,16.48
2022-11-15T07:38:39.573Z,15.80
2022-11-15T07:41:26.434Z,15.63
2022-11-15T07:44:11.758Z,15.55
2022-11-15T07:46:57.119Z,15.13
2022-11-15T07:49:42.561Z,15.45
2022-11-15T07:52:27.819Z,15.63
2022-11-15T07:55:13.169Z,16.50
2022-11-15T07:58:06.684Z,16.88
2022-11-15T08:00:52.116Z,18.60
2022-11-15T08:03:37.912Z,20.20
2022-11-15T08:06:23.308Z,15.82
2022-11-15T08:09:08.599Z,16.17
2022-11-15T08:11:54.048Z,21.50
2022-11-15T08:14:39.639Z,16.38
2022-11-15T08:17:25.844Z,17.83
2022-11-15T08:20:11.690Z,18.25
2022-11-15T08:22:58.218Z,22.48
2022-11-15T08:25:43.419Z,17.17
2022-11-15T08:28:28.993Z,15.98
2022-11-15T08:31:19.308Z,15.07
2022-11-15T08:34:05.386Z,14.20
2022-11-15T08:36:50.828Z,14.95
2022-11-15T08:39:36.188Z,16.10
2022-11-15T08:42:21.528Z,15.05
2022-11-15T08:45:08.672Z,15.07
2022-11-15T08:47:54.732Z,15.30
2022-11-15T08:50:40.467Z,15.55
2022-11-15T08:53:25.516Z,13.85
2022-11-15T08:56:13.292Z,14.75
2022-11-15T08:58:58.795Z,14.93
2022-11-15T09:01:44.391Z,15.40
2022-11-15T09:04:30.733Z,15.35
2022-11-15T09:07:16.237Z,15.50
2022-11-15T09:10:01.712Z,15.18
2022-11-15T09:12:49.554Z,15.85
2022-11-15T09:15:34.774Z,14.25
2022-11-15T09:18:22.434Z,15.07
2022-11-15T09:21:08.082Z,16.08
2022-11-15T09:23:53.925Z,15.07
2022-11-15T09:26:39.117Z,17.45
2022-11-15T09:29:24.364Z,17.80
2022-11-15T09:32:10.506Z,33.17
2022-11-15T09:34:56.285Z,40.17
2022-11-15T09:37:41.648Z,25.75
2022-11-15T09:40:27.395Z,19.58
2022-11-15T09:43:32.273Z,22.58
2022-11-15T09:46:34.203Z,21.13
2022-11-15T09:49:27.220Z,17.33
2022-11-15T09:52:21.890Z,17.70
2022-11-15T09:54:53.777Z,15.07
2022-11-15T09:57:42.757Z,17.27
2022-11-15T10:00:47.233Z,16.52
2022-11-15T10:03:26.037Z,16.70
2022-11-15T10:08:35.670Z,16.58
2022-11-15T10:11:36.200Z,16.10
2022-11-15T10:13:58.833Z,16.52
2022-11-15T10:16:31.665Z,18.10
2022-11-15T10:19:04.371Z,17.75
2022-11-15T10:21:45.672Z,16.70
2022-11-15T10:24:14.100Z,17.38
2022-11-15T10:26:48.144Z,17.20
2022-11-15T10:29:27.005Z,18.08
2022-11-15T10:31:54.313Z,18.27
2022-11-15T10:34:23.231Z,18.52
2022-11-15T10:36:58.391Z,17.98
2022-11-15T10:42:27.223Z,19.77
2022-11-15T10:44:54.401Z,19.48
2022-11-15T10:47:23.468Z,20.55
2022-11-15T10:50:02.305Z,21.42
2022-11-15T10:52:31.322Z,19.38
2022-11-15T10:55:06.552Z,20.80
2022-11-15T10:57:38.602Z,22.00
2022-11-15T11:00:33.185Z,20.90
2022-11-15T11:03:04.769Z,20.65
2022-11-15T11:05:42.566Z,20.38
2022-11-15T11:08:15.889Z,20.48
2022-11-15T11:11:03.219Z,21.38
2022-11-15T11:13:31.800Z,21.60
2022-11-15T11:16:20.765Z,22.02
2022-11-15T11:19:09.248Z,23.45
2022-11-15T11:21:47.127Z,30.05
2022-11-15T11:24:44.454Z,30.67
2022-11-15T11:27:32.853Z,23.55
2022-11-15T11:30:19.986Z,24.45
2022-11-15T11:33:29.163Z,21.45
2022-11-15T11:35:55.912Z,19.95
2022-11-15T11:38:54.953Z,22.67
2022-11-15T11:41:28.890Z,19.13
2022-11-15T11:43:58.741Z,20.60
2022-11-15T11:46:47.265Z,19.08
2022-11-15T11:49:32.256Z,18.48
2022-11-15T11:52:40.049Z,18.75
2022-11-15T11:55:18.753Z,17.20
2022-11-15T11:58:20.833Z,17.55
2022-11-15T12:03:28.954Z,20.40
2022-11-15T12:06:00.821Z,17.85
2022-11-15T12:08:42.799Z,15.95
2022-11-15T12:11:25.009Z,16.20
2022-11-15T12:13:59.005Z,16.58
2022-11-15T12:16:31.349Z,18.38
2022-11-15T12:19:04.719Z,19.08
2022-11-15T12:21:50.469Z,17.98
2022-11-15T12:24:41.529Z,18.75
2022-11-15T12:27:20.552Z,16.42
2022-11-15T12:29:58.574Z,17.88
2022-11-15T12:33:09.309Z,16.83
2022-11-15T12:35:42.645Z,18.70
2022-11-15T12:38:33.452Z,16.02
2022-11-15T12:41:18.905Z,15.88
2022-11-15T12:43:47.627Z,16.60
2022-11-15T12:46:34.354Z,16.27
2022-11-15T12:49:02.404Z,15.77
2022-11-15T12:51:44.232Z,17.05
2022-11-15T12:54:43.428Z,17.00
2022-11-15T12:57:16.145Z,15.93
2022-11-15T12:59:53.085Z,16.63
2022-11-15T13:02:22.318Z,16.60
2022-11-15T13:04:50.657Z,16.13
2022-11-15T13:07:35.694Z,17.95
2022-11-15T13:10:31.297Z,17.73
2022-11-15T13:13:03.777Z,17.45
2022-11-15T13:16:06.697Z,16.33
2022-11-15T13:18:39.153Z,16.13
2022-11-15T13:21:39.144Z,17.10
2022-11-15T13:24:11.578Z,16.67
2022-11-15T13:26:41.138Z,16.83
2022-11-15T13:29:17.834Z,17.58
2022-11-15T13:31:45.938Z,16.67
2022-11-15T13:34:49.923Z,16.83
2022-11-15T13:37:21.027Z,16.45
2022-11-15T13:39:49.818Z,17.65
2022-11-15T13:42:21.707Z,17.42
2022-11-15T13:45:00.819Z,17.20
2022-11-15T13:47:30.424Z,17.75
2022-11-15T13:50:02.253Z,17.83
2022-11-15T13:52:35.936Z,18.27
2022-11-15T13:55:11.361Z,17.55
2022-11-15T13:57:49.191Z,17.67
2022-11-15T14:00:44.852Z,16.95
2022-11-15T14:03:17.612Z,16.13
2022-11-15T14:05:45.945Z,17.60
2022-11-15T14:08:34.054Z,16.13
2022-11-15T14:11:27.487Z,17.50
2022-11-15T14:14:09.410Z,16.80
2022-11-15T14:16:42.387Z,17.90
2022-11-15T14:19:33.626Z,20.55
2022-11-15T14:22:10.931Z,17.95
2022-11-15T14:24:38.507Z,13.88
2022-11-15T14:27:26.297Z,15.70
2022-11-15T14:29:53.967Z,15.85
2022-11-15T14:32:38.131Z,16.20
2022-11-15T14:35:12.878Z,14.93
2022-11-15T14:37:39.748Z,15.73
2022-11-15T14:40:07.362Z,15.52
2022-11-15T14:42:34.295Z,15.70
2022-11-15T14:45:01.158Z,17.08
2022-11-15T14:47:27.981Z,15.48
2022-11-15T14:49:54.776Z,16.35
2022-11-15T14:52:32.976Z,15.18
2022-11-15T14:55:00.897Z,15.75
2022-11-15T14:57:28.113Z,17.63
2022-11-15T14:59:55.059Z,17.10
2022-11-15T15:02:25.176Z,17.95
2022-11-15T15:04:52.738Z,16.13
2022-11-15T15:07:20.300Z,18.10
2022-11-15T15:09:47.767Z,16.83
2022-11-15T15:12:22.103Z,18.52
2022-11-15T15:14:51.009Z,18.05
2022-11-15T15:17:18.642Z,18.65
2022-11-15T15:19:46.173Z,20.42
2022-11-15T15:22:18.907Z,28.95
2022-11-15T15:24:47.077Z,20.40
2022-11-15T15:27:14.255Z,20.38
2022-11-15T15:29:41.674Z,19.38
2022-11-15T15:32:10.133Z,19.27
2022-11-15T15:34:37.019Z,19.10
2022-11-15T15:37:19.647Z,18.30
2022-11-15T15:39:46.583Z,18.08
2022-11-15T15:42:13.382Z,18.25
2022-11-15T15:44:40.224Z,18.73
2022-11-15T15:47:19.776Z,17.63
2022-11-15T15:49:47.240Z,18.35
2022-11-15T15:52:14.158Z,20.70
2022-11-15T15:54:41.769Z,17.85
2022-11-15T15:57:12.047Z,18.38
2022-11-15T15:59:39.150Z,17.10
2022-11-15T16:02:06.475Z,17.88
2022-11-15T16:04:33.306Z,18.02
2022-11-15T16:07:01.672Z,16.67
2022-11-15T16:09:47.204Z,23.38
2022-11-15T16:12:15.322Z,19.50
2022-11-15T16:14:42.154Z,17.95
2022-11-15T16:17:34.307Z,17.10
2022-11-15T16:20:01.760Z,20.90
2022-11-15T16:22:30.381Z,18.55
2022-11-15T16:24:57.672Z,18.33
2022-11-15T16:27:24.764Z,16.38
2022-11-15T16:29:51.591Z,16.38
2022-11-15T16:32:18.472Z,19.30
2022-11-15T16:34:49.034Z,21.15
2022-11-15T16:37:25.524Z,20.02
2022-11-15T16:39:55.923Z,19.08
2022-11-15T16:42:25.275Z,16.25
2022-11-15T16:44:52.151Z,18.80
2022-11-15T16:47:20.267Z,19.92
2022-11-15T16:49:47.655Z,18.00
2022-11-15T16:52:20.159Z,18.25
2022-11-15T16:54:48.171Z,17.23
2022-11-15T16:57:16.639Z,18.75
2022-11-15T16:59:43.540Z,18.13
2022-11-15T17:02:14.017Z,18.50
2022-11-15T17:04:41.085Z,23.63
2022-11-15T17:07:08.719Z,21.70
2022-11-15T17:09:35.609Z,23.05
2022-11-15T17:12:02.441Z,22.10
2022-11-15T17:14:29.516Z,28.63
2022-11-15T17:16:56.376Z,31.27
2022-11-15T17:19:23.219Z,24.27
2022-11-15T17:21:50.426Z,20.00
2022-11-15T17:24:17.468Z,18.58
2022-11-15T17:26:44.318Z,18.40
2022-11-15T17:29:11.308Z,18.85
2022-11-15T17:31:39.056Z,19.48
2022-11-15T17:34:06.974Z,22.70
2022-11-15T17:36:35.558Z,25.80
2022-11-15T17:39:03.807Z,25.23
2022-11-15T17:41:30.924Z,22.45
2022-11-15T17:44:00.055Z,24.75
2022-11-15T17:46:28.421Z,24.13
2022-11-15T17:48:56.699Z,20.83
2022-11-15T17:51:24.252Z,21.67
2022-11-15T17:53:51.760Z,24.95
2022-11-15T17:56:23.516Z,22.88
2022-11-15T17:58:52.909Z,24.10
2022-11-15T18:01:27.982Z,24.70
2022-11-15T18:03:56.011Z,25.52
2022-11-15T18:06:24.512Z,27.30
2022-11-15T18:08:52.909Z,30.60
2022-11-15T18:11:25.274Z,28.08
2022-11-15T18:14:00.943Z,29.92
2022-11-15T18:16:31.015Z,37.85
2022-11-15T18:18:59.063Z,45.22
2022-11-15T18:21:30.969Z,41.70
2022-11-15T18:24:00.233Z,38.00
2022-11-15T18:26:29.487Z,30.33
2022-11-15T18:29:05.514Z,27.65
2022-11-15T18:31:32.545Z,24.33
2022-11-15T18:34:00.718Z,22.48
2022-11-15T18:36:29.967Z,24.17
2022-11-15T18:38:59.391Z,21.08
2022-11-15T18:41:30.844Z,23.40
2022-11-15T18:43:59.625Z,27.52
2022-11-15T18:46:29.068Z,39.90
2022-11-15T18:48:56.581Z,42.88
2022-11-15T18:51:25.707Z,45.30
2022-11-15T18:53:54.475Z,28.10
2022-11-15T18:56:22.763Z,27.92
2022-11-15T18:58:52.473Z,33.20
2022-11-15T19:01:21.607Z,33.20
2022-11-15T19:03:50.913Z,30.48
2022-11-15T19:06:20.220Z,28.70
2022-11-15T19:08:49.281Z,28.77
2022-11-15T19:11:17.420Z,29.60
2022-11-15T19:13:46.311Z,29.13
2022-11-15T19:16:16.064Z,30.08
2022-11-15T19:18:43.232Z,33.03
2022-11-15T19:21:15.825Z,35.60
2022-11-15T19:23:43.507Z,37.88
2022-11-15T19:26:15.887Z,37.58
2022-11-15T19:28:44.150Z,38.20
2022-11-15T19:31:16.305Z,38.33
2022-11-15T19:33:44.920Z,41.25
2022-11-15T19:36:15.839Z,40.75
2022-11-15T19:38:43.306Z,40.20
2022-11-15T19:41:12.582Z,42.78
2022-11-15T19:43:39.841Z,43.40
2022-11-15T19:46:08.199Z,43.40
2022-11-15T19:48:35.212Z,41.42
2022-11-15T19:51:11.501Z,41.65
2022-11-15T19:53:39.209Z,37.75
2022-11-15T19:56:09.031Z,35.35
2022-11-15T19:58:36.167Z,35.22
2022-11-15T20:01:09.179Z,36.03
2022-11-15T20:03:36.803Z,34.63
2022-11-15T20:06:05.683Z,35.70
2022-11-15T20:08:33.419Z,33.30
2022-11-15T20:11:01.210Z,34.22
2022-11-15T20:13:28.658Z,28.38
2022-11-15T20:15:56.721Z,24.20
2022-11-15T20:18:25.315Z,25.35
2022-11-15T20:20:52.548Z,26.67
2022-11-15T20:23:19.439Z,25.55
2022-11-15T20:25:47.587Z,26.33
2022-11-15T20:28:20.375Z,27.63
2022-11-15T20:30:48.109Z,27.02
2022-11-15T20:33:15.147Z,26.92
2022-11-15T20:35:42.073Z,28.38
2022-11-15T20:38:08.898Z,28.48
2022-11-15T20:40:36.400Z,28.80
2022-11-15T20:43:03.268Z,28.67
2022-11-15T20:45:30.675Z,27.13
2022-11-15T20:47:58.622Z,27.30
2022-11-15T20:50:42.167Z,27.58
2022-11-15T20:55:44.723Z,28.23
2022-11-15T20:58:11.771Z,25.73
2022-11-15T21:00:38.965Z,25.65
2022-11-15T21:03:08.848Z,26.42
2022-11-15T21:05:39.407Z,25.77
2022-11-15T21:08:06.951Z,25.50
2022-11-15T21:10:52.457Z,28.90
2022-11-15T21:13:19.706Z,27.65
2022-11-15T21:15:47.245Z,29.30
2022-11-15T21:18:14.563Z,31.95
2022-11-15T21:20:41.845Z,39.47
2022-11-15T21:23:08.805Z,40.60
2022-11-15T21:25:35.883Z,36.25
2022-11-15T21:28:03.083Z,37.17
2022-11-15T21:30:31.287Z,33.78
2022-11-15T21:32:58.193Z,31.15
2022-11-15T21:35:25.275Z,26.25
2022-11-15T21:37:56.815Z,28.83
2022-11-15T21:40:25.073Z,27.08
2022-11-15T21:42:51.857Z,29.25
2022-11-15T21:45:18.669Z,29.23
2022-11-15T21:47:46.554Z,27.17
2022-11-15T21:50:14.370Z,24.88
2022-11-15T21:52:41.428Z,19.83
2022-11-15T21:55:09.255Z,24.33
2022-11-15T21:57:36.102Z,20.70
2022-11-15T22:00:22.522Z,20.63
2022-11-15T22:02:49.348Z,19.20
2022-11-15T22:05:16.322Z,19.42
2022-11-15T22:07:43.353Z,20.38
2022-11-15T22:10:10.500Z,21.30
2022-11-15T22:12:37.484Z,19.48
2022-11-15T22:15:04.534Z,21.00
2022-11-15T22:17:49.922Z,20.00
2022-11-15T22:20:42.954Z,21.00
2022-11-15T22:23:04.762Z,21.42
2022-11-15T22:25:32.604Z,24.05
2022-11-15T22:27:59.498Z,22.50
2022-11-15T22:30:26.446Z,23.35
2022-11-15T22:32:53.233Z,23.55
2022-11-15T22:35:20.200Z,23.20
2022-11-15T22:37:47.071Z,23.08
2022-11-15T22:40:13.881Z,22.77
2022-11-15T22:42:40.889Z,20.75
2022-11-15T22:45:08.041Z,20.38
2022-11-15T22:47:34.901Z,20.80
2022-11-15T22:50:01.775Z,20.15
2022-11-15T22:52:28.598Z,19.88
2022-11-15T22:54:55.611Z,19.40
2022-11-15T22:57:22.516Z,19.48
2022-11-15T22:59:49.330Z,20.33
2022-11-15T23:02:16.215Z,18.92
2022-11-15T23:04:43.121Z,17.92
2022-11-15T23:07:09.950Z,19.48
2022-11-15T23:09:37.182Z,19.00
2022-11-15T23:12:22.899Z,19.27
2022-11-15T23:14:49.856Z,18.67
2022-11-15T23:17:16.665Z,19.13
2022-11-15T23:19:43.567Z,19.00
2022-11-15T23:22:28.847Z,18.92
2022-11-15T23:24:56.373Z,18.65
2022-11-15T23:27:23.863Z,18.60
2022-11-15T23:30:09.423Z,21.08
2022-11-15T23:32:54.944Z,19.23
2022-11-15T23:35:21.915Z,20.17
2022-11-15T23:37:48.732Z,20.13
2022-11-15T23:40:15.854Z,19.05
2022-11-15T23:42:42.740Z,19.23
2022-11-15T23:45:10.075Z,20.73
2022-11-15T23:47:36.960Z,19.77
2022-11-15T23:50:04.224Z,19.55
2022-11-15T23:52:31.109Z,20.67
2022-11-15T23:54:58.014Z,20.15
2022-11-15T23:57:25.009Z,19.88
2022-11-15T23:59:51.955Z,19.25
